Gas Capricorn — A8AK7 — position and weather

sailwx.info

Track history (hours):
 
Tides and Currents Weather Stations Pressure Air Temp Water Temp Dewpoint Dewpoint Depression Visibility Wind Speed Wind Dir Waves Ship Positions

Gas Capricorn

Last reported at 2017-Sep-25 09:14 UTC. Time now 2017-Oct-17 20:45 UTC.
Position N 33°50' E 134°55'.
Warning: this ship's position is 22 days out of date.

Length 230 m; beam 36.6 m.

Type: Tanker. MMSI: 636011617.

Date/timePositionNaut miles runAvg speedWind from/ knotsBaromVisibWave heightAir tempDewpointWater temp
2017-Sep-25 09:14N 33°50' E 134°55'415.7
2017-Sep-25 08:58N 33°54' E 134°55'715.4
2017-Sep-25 08:30N 34°02' E 134°56'715.1
2017-Sep-25 08:00N 34°09' E 134°57'612.5
2017-Sep-25 07:30N 34°15' E 134°58'714.8
2017-Sep-25 07:00N 34°22' E 135°00'815.8
2017-Sep-25 06:29N 34°30' E 135°04'5 9.8
2017-Sep-25 05:59N 34°34' E 135°06'612.0
2017-Sep-25 05:30N 34°37' E 134°59'815.9
2017-Sep-25 05:00N 34°34' E 134°50'7 0.3
2017-Sep-24 00:01N 34°37' E 134°58'113.0
2017-Sep-23 23:58N 34°38' E 134°59'612.6
2017-Sep-23 23:30N 34°35' E 135°05'4 6.9
2017-Sep-23 23:00N 34°33' E 135°09'5 9.4
2017-Sep-23 22:30N 34°29' E 135°06'611.7
2017-Sep-23 22:00N 34°23' E 135°03'612.5
2017-Sep-23 21:30N 34°18' E 134°59'612.3
2017-Sep-23 21:00N 34°12' E 134°60'612.0
2017-Sep-23 20:30N 34°06' E 134°60'814.6
2017-Sep-23 19:59N 33°58' E 134°58'41 1.0
2017-Sep-22 01:02N 34°33' E 135°25'0 1.8
2017-Sep-22 01:00N 34°33' E 135°25'1 1.8
2017-Sep-22 00:30N 34°33' E 135°25'3 6.8
2017-Sep-21 23:59N 34°33' E 135°21'4 8.6
2017-Sep-21 23:30N 34°32' E 135°16'510.9
2017-Sep-21 23:00N 34°29' E 135°11'611.0
2017-Sep-21 22:29N 34°24' E 135°06'612.8
2017-Sep-21 22:00N 34°19' E 135°02'612.2
2017-Sep-21 21:30N 34°14' E 134°59'5 9.9
2017-Sep-21 21:00N 34°09' E 134°59'4 7.3
2017-Sep-21 20:30N 34°05' E 134°59'510.2
2017-Sep-21 20:00N 34°00' E 134°58'611.1
2017-Sep-21 19:29N 33°55' E 134°56'  
Track history (hours):
 
Tides and Currents Weather Stations Pressure Air Temp Water Temp Dewpoint Dewpoint Depression Visibility Wind Speed Wind Dir Waves Ship Positions

Gas Capricorn

Last reported at 2017-Sep-25 09:14 UTC. Time now 2017-Oct-17 20:45 UTC.
Position N 33°50' E 134°55'.
Warning: this ship's position is 22 days out of date.

Length 230 m; beam 36.6 m.

Type: Tanker. MMSI: 636011617.

Date/timePositionNaut miles runAvg speedWind from/ knotsBaromVisibWave heightAir tempDewpointWater temp
2017-Sep-25 09:14N 33°50' E 134°55'415.7
2017-Sep-25 08:58N 33°54' E 134°55'715.4
2017-Sep-25 08:30N 34°02' E 134°56'715.1
2017-Sep-25 08:00N 34°09' E 134°57'612.5
2017-Sep-25 07:30N 34°15' E 134°58'714.8
2017-Sep-25 07:00N 34°22' E 135°00'815.8
2017-Sep-25 06:29N 34°30' E 135°04'5 9.8
2017-Sep-25 05:59N 34°34' E 135°06'612.0
2017-Sep-25 05:30N 34°37' E 134°59'815.9
2017-Sep-25 05:00N 34°34' E 134°50'7 0.3
2017-Sep-24 00:01N 34°37' E 134°58'113.0
2017-Sep-23 23:58N 34°38' E 134°59'612.6
2017-Sep-23 23:30N 34°35' E 135°05'4 6.9
2017-Sep-23 23:00N 34°33' E 135°09'5 9.4
2017-Sep-23 22:30N 34°29' E 135°06'611.7
2017-Sep-23 22:00N 34°23' E 135°03'612.5
2017-Sep-23 21:30N 34°18' E 134°59'612.3
2017-Sep-23 21:00N 34°12' E 134°60'612.0
2017-Sep-23 20:30N 34°06' E 134°60'814.6
2017-Sep-23 19:59N 33°58' E 134°58'41 1.0
2017-Sep-22 01:02N 34°33' E 135°25'0 1.8
2017-Sep-22 01:00N 34°33' E 135°25'1 1.8
2017-Sep-22 00:30N 34°33' E 135°25'3 6.8
2017-Sep-21 23:59N 34°33' E 135°21'4 8.6
2017-Sep-21 23:30N 34°32' E 135°16'510.9
2017-Sep-21 23:00N 34°29' E 135°11'611.0
2017-Sep-21 22:29N 34°24' E 135°06'612.8
2017-Sep-21 22:00N 34°19' E 135°02'612.2
2017-Sep-21 21:30N 34°14' E 134°59'5 9.9
2017-Sep-21 21:00N 34°09' E 134°59'4 7.3
2017-Sep-21 20:30N 34°05' E 134°59'510.2
2017-Sep-21 20:00N 34°00' E 134°58'611.1
2017-Sep-21 19:29N 33°55' E 134°56'  

Dump ship's entire track history